sensor_id;sensor_type;location;lat;lon;timestamp;P1;durP1;ratioP1;P2;durP2;ratioP2
7493;SDS011;3788;49.902;8.590;2023-07-20T00:01:25;1.90;;;1.70;;
7493;SDS011;3788;49.902;8.590;2023-07-20T00:03:51;1.67;;;1.53;;
7493;SDS011;3788;49.902;8.590;2023-07-20T00:06:20;1.70;;;1.60;;
7493;SDS011;3788;49.902;8.590;2023-07-20T00:08:47;1.90;;;1.70;;
7493;SDS011;3788;49.902;8.590;2023-07-20T00:11:15;1.83;;;1.60;;
7493;SDS011;3788;49.902;8.590;2023-07-20T00:13:42;2.20;;;1.90;;
7493;SDS011;3788;49.902;8.590;2023-07-20T00:16:09;1.97;;;1.77;;
7493;SDS011;3788;49.902;8.590;2023-07-20T00:18:35;2.00;;;1.70;;
7493;SDS011;3788;49.902;8.590;2023-07-20T00:21:02;2.20;;;1.80;;
7493;SDS011;3788;49.902;8.590;2023-07-20T00:23:29;1.83;;;1.73;;
7493;SDS011;3788;49.902;8.590;2023-07-20T00:25:55;2.37;;;2.07;;
7493;SDS011;3788;49.902;8.590;2023-07-20T00:28:23;5.67;;;2.17;;
7493;SDS011;3788;49.902;8.590;2023-07-20T00:30:50;2.20;;;2.00;;
7493;SDS011;3788;49.902;8.590;2023-07-20T00:33:17;2.90;;;2.00;;
7493;SDS011;3788;49.902;8.590;2023-07-20T00:35:44;2.67;;;1.80;;
7493;SDS011;3788;49.902;8.590;2023-07-20T00:38:11;1.83;;;1.70;;
7493;SDS011;3788;49.902;8.590;2023-07-20T00:40:38;2.43;;;2.17;;
7493;SDS011;3788;49.902;8.590;2023-07-20T00:43:05;1.93;;;1.73;;
7493;SDS011;3788;49.902;8.590;2023-07-20T00:45:33;2.07;;;1.87;;
7493;SDS011;3788;49.902;8.590;2023-07-20T00:48:00;1.73;;;1.60;;
7493;SDS011;3788;49.902;8.590;2023-07-20T00:50:28;1.73;;;1.63;;
7493;SDS011;3788;49.902;8.590;2023-07-20T00:52:55;1.93;;;1.80;;
7493;SDS011;3788;49.902;8.590;2023-07-20T00:55:23;2.00;;;1.90;;
7493;SDS011;3788;49.902;8.590;2023-07-20T00:57:50;3.47;;;1.90;;
7493;SDS011;3788;49.902;8.590;2023-07-20T01:00:17;2.10;;;1.77;;
7493;SDS011;3788;49.902;8.590;2023-07-20T01:02:45;2.67;;;2.00;;
7493;SDS011;3788;49.902;8.590;2023-07-20T01:05:12;2.03;;;1.83;;
7493;SDS011;3788;49.902;8.590;2023-07-20T01:07:43;2.03;;;1.87;;
7493;SDS011;3788;49.902;8.590;2023-07-20T01:10:19;1.87;;;1.70;;
7493;SDS011;3788;49.902;8.590;2023-07-20T01:12:52;2.40;;;2.20;;
7493;SDS011;3788;49.902;8.590;2023-07-20T01:15:19;3.10;;;1.97;;
7493;SDS011;3788;49.902;8.590;2023-07-20T01:17:47;2.00;;;1.90;;
7493;SDS011;3788;49.902;8.590;2023-07-20T01:20:15;3.07;;;2.33;;
7493;SDS011;3788;49.902;8.590;2023-07-20T01:23:00;3.17;;;2.30;;
7493;SDS011;3788;49.902;8.590;2023-07-20T01:25:45;2.30;;;2.10;;
7493;SDS011;3788;49.902;8.590;2023-07-20T01:28:35;3.33;;;2.03;;
7493;SDS011;3788;49.902;8.590;2023-07-20T01:31:20;1.80;;;1.70;;
7493;SDS011;3788;49.902;8.590;2023-07-20T01:33:50;3.07;;;1.80;;
7493;SDS011;3788;49.902;8.590;2023-07-20T01:36:18;2.67;;;1.70;;
7493;SDS011;3788;49.902;8.590;2023-07-20T01:38:45;2.30;;;2.00;;
7493;SDS011;3788;49.902;8.590;2023-07-20T01:41:12;2.27;;;2.10;;
7493;SDS011;3788;49.902;8.590;2023-07-20T01:43:40;2.20;;;2.00;;
7493;SDS011;3788;49.902;8.590;2023-07-20T01:46:08;2.60;;;2.20;;
7493;SDS011;3788;49.902;8.590;2023-07-20T01:48:36;2.57;;;2.20;;
7493;SDS011;3788;49.902;8.590;2023-07-20T01:51:03;2.17;;;1.97;;
7493;SDS011;3788;49.902;8.590;2023-07-20T01:53:29;1.80;;;1.70;;
7493;SDS011;3788;49.902;8.590;2023-07-20T01:55:56;2.10;;;1.90;;
7493;SDS011;3788;49.902;8.590;2023-07-20T01:58:23;2.63;;;1.80;;
7493;SDS011;3788;49.902;8.590;2023-07-20T02:00:50;3.83;;;2.17;;
7493;SDS011;3788;49.902;8.590;2023-07-20T02:03:17;3.27;;;1.97;;
7493;SDS011;3788;49.902;8.590;2023-07-20T02:05:45;2.17;;;1.73;;
7493;SDS011;3788;49.902;8.590;2023-07-20T02:08:11;1.90;;;1.70;;
7493;SDS011;3788;49.902;8.590;2023-07-20T02:10:38;2.00;;;1.80;;
7493;SDS011;3788;49.902;8.590;2023-07-20T02:13:05;2.73;;;2.10;;
7493;SDS011;3788;49.902;8.590;2023-07-20T02:15:31;2.27;;;2.07;;
7493;SDS011;3788;49.902;8.590;2023-07-20T02:17:58;2.53;;;2.13;;
7493;SDS011;3788;49.902;8.590;2023-07-20T02:20:25;1.70;;;1.60;;
7493;SDS011;3788;49.902;8.590;2023-07-20T02:22:53;1.73;;;1.63;;
7493;SDS011;3788;49.902;8.590;2023-07-20T02:25:21;1.90;;;1.80;;
7493;SDS011;3788;49.902;8.590;2023-07-20T02:27:47;2.27;;;2.07;;
7493;SDS011;3788;49.902;8.590;2023-07-20T02:30:14;2.97;;;1.90;;
7493;SDS011;3788;49.902;8.590;2023-07-20T02:32:42;2.87;;;1.93;;
7493;SDS011;3788;49.902;8.590;2023-07-20T02:35:10;2.00;;;1.90;;
7493;SDS011;3788;49.902;8.590;2023-07-20T02:37:37;2.13;;;1.93;;
7493;SDS011;3788;49.902;8.590;2023-07-20T02:40:06;2.43;;;1.90;;
7493;SDS011;3788;49.902;8.590;2023-07-20T02:42:33;1.90;;;1.67;;
7493;SDS011;3788;49.902;8.590;2023-07-20T02:45:01;2.00;;;1.80;;
7493;SDS011;3788;49.902;8.590;2023-07-20T02:47:29;2.23;;;1.73;;
7493;SDS011;3788;49.902;8.590;2023-07-20T02:49:56;2.10;;;1.73;;
7493;SDS011;3788;49.902;8.590;2023-07-20T02:52:22;2.40;;;1.73;;
7493;SDS011;3788;49.902;8.590;2023-07-20T02:54:50;2.00;;;1.80;;
7493;SDS011;3788;49.902;8.590;2023-07-20T02:57:18;2.87;;;1.50;;
7493;SDS011;3788;49.902;8.590;2023-07-20T02:59:45;3.67;;;1.93;;
7493;SDS011;3788;49.902;8.590;2023-07-20T03:02:12;1.80;;;1.70;;
7493;SDS011;3788;49.902;8.590;2023-07-20T03:04:38;2.50;;;1.60;;
7493;SDS011;3788;49.902;8.590;2023-07-20T03:07:05;1.93;;;1.73;;
7493;SDS011;3788;49.902;8.590;2023-07-20T03:09:32;2.20;;;2.00;;
7493;SDS011;3788;49.902;8.590;2023-07-20T03:11:58;1.93;;;1.67;;
7493;SDS011;3788;49.902;8.590;2023-07-20T03:14:27;1.67;;;1.57;;
7493;SDS011;3788;49.902;8.590;2023-07-20T03:16:54;1.97;;;1.87;;
7493;SDS011;3788;49.902;8.590;2023-07-20T03:19:20;1.83;;;1.60;;
7493;SDS011;3788;49.902;8.590;2023-07-20T03:21:47;3.13;;;2.07;;
7493;SDS011;3788;49.902;8.590;2023-07-20T03:24:14;2.40;;;1.60;;
7493;SDS011;3788;49.902;8.590;2023-07-20T03:26:42;1.80;;;1.70;;
7493;SDS011;3788;49.902;8.590;2023-07-20T03:29:09;1.80;;;1.70;;
7493;SDS011;3788;49.902;8.590;2023-07-20T03:31:37;2.60;;;1.63;;
7493;SDS011;3788;49.902;8.590;2023-07-20T03:34:04;3.10;;;2.10;;
7493;SDS011;3788;49.902;8.590;2023-07-20T03:36:31;2.10;;;1.90;;
7493;SDS011;3788;49.902;8.590;2023-07-20T03:38:57;2.40;;;2.20;;
7493;SDS011;3788;49.902;8.590;2023-07-20T03:41:24;2.07;;;1.73;;
7493;SDS011;3788;49.902;8.590;2023-07-20T03:43:51;4.83;;;2.30;;
7493;SDS011;3788;49.902;8.590;2023-07-20T03:46:17;3.10;;;1.93;;
7493;SDS011;3788;49.902;8.590;2023-07-20T03:48:45;4.47;;;2.47;;
7493;SDS011;3788;49.902;8.590;2023-07-20T03:51:12;3.53;;;2.20;;
7493;SDS011;3788;49.902;8.590;2023-07-20T03:53:39;2.37;;;2.00;;
7493;SDS011;3788;49.902;8.590;2023-07-20T03:56:06;3.57;;;2.33;;
7493;SDS011;3788;49.902;8.590;2023-07-20T03:58:32;3.30;;;2.10;;
7493;SDS011;3788;49.902;8.590;2023-07-20T04:00:59;2.20;;;2.00;;
7493;SDS011;3788;49.902;8.590;2023-07-20T04:03:26;2.97;;;2.03;;
7493;SDS011;3788;49.902;8.590;2023-07-20T04:05:54;2.80;;;2.20;;
7493;SDS011;3788;49.902;8.590;2023-07-20T04:08:22;2.30;;;2.03;;
7493;SDS011;3788;49.902;8.590;2023-07-20T04:10:49;4.20;;;2.03;;
7493;SDS011;3788;49.902;8.590;2023-07-20T04:13:16;2.43;;;1.87;;
7493;SDS011;3788;49.902;8.590;2023-07-20T04:15:43;2.83;;;1.97;;
7493;SDS011;3788;49.902;8.590;2023-07-20T04:18:10;2.27;;;2.07;;
7493;SDS011;3788;49.902;8.590;2023-07-20T04:20:37;3.10;;;2.70;;
7493;SDS011;3788;49.902;8.590;2023-07-20T04:23:05;3.57;;;2.30;;
7493;SDS011;3788;49.902;8.590;2023-07-20T04:25:32;2.13;;;1.87;;
7493;SDS011;3788;49.902;8.590;2023-07-20T04:28:04;3.17;;;1.97;;
7493;SDS011;3788;49.902;8.590;2023-07-20T04:30:33;2.83;;;1.80;;
7493;SDS011;3788;49.902;8.590;2023-07-20T04:33:00;2.33;;;2.13;;
7493;SDS011;3788;49.902;8.590;2023-07-20T04:35:46;2.43;;;1.80;;
7493;SDS011;3788;49.902;8.590;2023-07-20T04:38:15;1.97;;;1.83;;
7493;SDS011;3788;49.902;8.590;2023-07-20T04:40:43;2.40;;;2.20;;
7493;SDS011;3788;49.902;8.590;2023-07-20T04:43:10;2.17;;;1.97;;
7493;SDS011;3788;49.902;8.590;2023-07-20T04:45:37;1.90;;;1.80;;
7493;SDS011;3788;49.902;8.590;2023-07-20T04:48:06;2.03;;;1.93;;
7493;SDS011;3788;49.902;8.590;2023-07-20T04:50:35;2.30;;;2.10;;
7493;SDS011;3788;49.902;8.590;2023-07-20T04:53:02;2.63;;;2.10;;
7493;SDS011;3788;49.902;8.590;2023-07-20T04:55:30;3.07;;;2.10;;
7493;SDS011;3788;49.902;8.590;2023-07-20T04:57:58;2.70;;;2.20;;
7493;SDS011;3788;49.902;8.590;2023-07-20T05:00:25;2.10;;;1.90;;
7493;SDS011;3788;49.902;8.590;2023-07-20T05:02:52;2.03;;;1.83;;
7493;SDS011;3788;49.902;8.590;2023-07-20T05:05:19;2.50;;;2.13;;
7493;SDS011;3788;49.902;8.590;2023-07-20T05:07:45;2.47;;;2.10;;
7493;SDS011;3788;49.902;8.590;2023-07-20T05:10:12;3.67;;;2.60;;
7493;SDS011;3788;49.902;8.590;2023-07-20T05:12:40;1.83;;;1.70;;
7493;SDS011;3788;49.902;8.590;2023-07-20T05:15:07;2.00;;;1.73;;
7493;SDS011;3788;49.902;8.590;2023-07-20T05:17:34;2.13;;;1.93;;
7493;SDS011;3788;49.902;8.590;2023-07-20T05:20:01;1.77;;;1.63;;
7493;SDS011;3788;49.902;8.590;2023-07-20T05:22:29;2.10;;;1.90;;
7493;SDS011;3788;49.902;8.590;2023-07-20T05:24:56;2.10;;;1.90;;
7493;SDS011;3788;49.902;8.590;2023-07-20T05:27:23;1.80;;;1.70;;
7493;SDS011;3788;49.902;8.590;2023-07-20T05:29:51;4.63;;;2.17;;
7493;SDS011;3788;49.902;8.590;2023-07-20T05:32:18;2.77;;;1.80;;
7493;SDS011;3788;49.902;8.590;2023-07-20T05:34:44;2.27;;;2.00;;
7493;SDS011;3788;49.902;8.590;2023-07-20T05:37:11;4.43;;;2.40;;
7493;SDS011;3788;49.902;8.590;2023-07-20T05:39:38;2.00;;;1.80;;
7493;SDS011;3788;49.902;8.590;2023-07-20T05:42:05;2.57;;;2.10;;
7493;SDS011;3788;49.902;8.590;2023-07-20T05:44:31;2.17;;;1.73;;
7493;SDS011;3788;49.902;8.590;2023-07-20T05:46:59;2.10;;;1.90;;
7493;SDS011;3788;49.902;8.590;2023-07-20T05:49:27;2.37;;;1.90;;
7493;SDS011;3788;49.902;8.590;2023-07-20T05:51:54;3.23;;;2.10;;
7493;SDS011;3788;49.902;8.590;2023-07-20T05:54:21;2.50;;;1.77;;
7493;SDS011;3788;49.902;8.590;2023-07-20T05:56:50;3.63;;;1.70;;
7493;SDS011;3788;49.902;8.590;2023-07-20T05:59:16;3.93;;;2.23;;
7493;SDS011;3788;49.902;8.590;2023-07-20T06:01:44;2.37;;;2.17;;
7493;SDS011;3788;49.902;8.590;2023-07-20T06:04:13;3.70;;;2.00;;
7493;SDS011;3788;49.902;8.590;2023-07-20T06:06:40;3.67;;;2.03;;
7493;SDS011;3788;49.902;8.590;2023-07-20T06:09:06;2.47;;;1.93;;
7493;SDS011;3788;49.902;8.590;2023-07-20T06:11:36;4.13;;;2.43;;
7493;SDS011;3788;49.902;8.590;2023-07-20T06:14:03;2.10;;;1.90;;
7493;SDS011;3788;49.902;8.590;2023-07-20T06:16:30;2.10;;;1.90;;
7493;SDS011;3788;49.902;8.590;2023-07-20T06:18:58;2.40;;;1.90;;
7493;SDS011;3788;49.902;8.590;2023-07-20T06:21:27;2.57;;;2.10;;
7493;SDS011;3788;49.902;8.590;2023-07-20T06:23:54;2.57;;;2.13;;
7493;SDS011;3788;49.902;8.590;2023-07-20T06:26:20;1.87;;;1.77;;
7493;SDS011;3788;49.902;8.590;2023-07-20T06:28:47;2.87;;;2.00;;
7493;SDS011;3788;49.902;8.590;2023-07-20T06:31:14;3.33;;;2.10;;
7493;SDS011;3788;49.902;8.590;2023-07-20T06:33:41;2.77;;;2.00;;
7493;SDS011;3788;49.902;8.590;2023-07-20T06:36:08;4.27;;;2.27;;
7493;SDS011;3788;49.902;8.590;2023-07-20T06:38:36;2.63;;;2.00;;
7493;SDS011;3788;49.902;8.590;2023-07-20T06:41:02;2.30;;;2.10;;
7493;SDS011;3788;49.902;8.590;2023-07-20T06:43:29;2.20;;;1.67;;
7493;SDS011;3788;49.902;8.590;2023-07-20T06:45:56;2.60;;;1.80;;
7493;SDS011;3788;49.902;8.590;2023-07-20T06:48:22;5.00;;;1.70;;
7493;SDS011;3788;49.902;8.590;2023-07-20T06:50:49;5.93;;;2.10;;
7493;SDS011;3788;49.902;8.590;2023-07-20T06:53:16;2.17;;;1.87;;
7493;SDS011;3788;49.902;8.590;2023-07-20T06:55:44;3.23;;;1.90;;
7493;SDS011;3788;49.902;8.590;2023-07-20T06:58:11;4.00;;;1.80;;
7493;SDS011;3788;49.902;8.590;2023-07-20T07:00:38;2.53;;;2.20;;
7493;SDS011;3788;49.902;8.590;2023-07-20T07:03:04;2.53;;;1.77;;
7493;SDS011;3788;49.902;8.590;2023-07-20T07:05:34;2.00;;;1.70;;
7493;SDS011;3788;49.902;8.590;2023-07-20T07:08:02;2.23;;;1.80;;
7493;SDS011;3788;49.902;8.590;2023-07-20T07:10:28;4.93;;;1.77;;
7493;SDS011;3788;49.902;8.590;2023-07-20T07:12:56;1.90;;;1.50;;
7493;SDS011;3788;49.902;8.590;2023-07-20T07:15:23;1.77;;;1.67;;
7493;SDS011;3788;49.902;8.590;2023-07-20T07:17:50;2.57;;;1.53;;
7493;SDS011;3788;49.902;8.590;2023-07-20T07:20:17;2.17;;;1.90;;
7493;SDS011;3788;49.902;8.590;2023-07-20T07:22:44;1.70;;;1.40;;
7493;SDS011;3788;49.902;8.590;2023-07-20T07:25:11;4.20;;;2.00;;
7493;SDS011;3788;49.902;8.590;2023-07-20T07:27:38;2.20;;;1.87;;
7493;SDS011;3788;49.902;8.590;2023-07-20T07:30:07;2.50;;;1.70;;
7493;SDS011;3788;49.902;8.590;2023-07-20T07:32:34;2.20;;;1.73;;
7493;SDS011;3788;49.902;8.590;2023-07-20T07:35:01;3.53;;;1.73;;
7493;SDS011;3788;49.902;8.590;2023-07-20T07:37:27;2.23;;;2.00;;
7493;SDS011;3788;49.902;8.590;2023-07-20T07:39:54;5.97;;;1.97;;
7493;SDS011;3788;49.902;8.590;2023-07-20T07:42:21;3.30;;;1.97;;
7493;SDS011;3788;49.902;8.590;2023-07-20T07:44:48;1.70;;;1.60;;
7493;SDS011;3788;49.902;8.590;2023-07-20T07:47:16;1.73;;;1.50;;
7493;SDS011;3788;49.902;8.590;2023-07-20T07:49:43;1.97;;;1.60;;
7493;SDS011;3788;49.902;8.590;2023-07-20T07:52:10;3.80;;;1.80;;
7493;SDS011;3788;49.902;8.590;2023-07-20T07:54:36;3.83;;;2.13;;
7493;SDS011;3788;49.902;8.590;2023-07-20T07:57:03;4.30;;;1.73;;
7493;SDS011;3788;49.902;8.590;2023-07-20T07:59:30;4.17;;;1.90;;
7493;SDS011;3788;49.902;8.590;2023-07-20T08:02:01;3.57;;;1.90;;
7493;SDS011;3788;49.902;8.590;2023-07-20T08:04:30;2.33;;;1.60;;
7493;SDS011;3788;49.902;8.590;2023-07-20T08:06:56;3.13;;;1.60;;
7493;SDS011;3788;49.902;8.590;2023-07-20T08:09:24;2.63;;;1.60;;
7493;SDS011;3788;49.902;8.590;2023-07-20T08:11:51;2.60;;;1.67;;
7493;SDS011;3788;49.902;8.590;2023-07-20T08:14:18;2.40;;;1.60;;
7493;SDS011;3788;49.902;8.590;2023-07-20T08:16:45;3.23;;;1.87;;
7493;SDS011;3788;49.902;8.590;2023-07-20T08:19:12;1.47;;;1.30;;
7493;SDS011;3788;49.902;8.590;2023-07-20T08:21:40;1.70;;;1.37;;
7493;SDS011;3788;49.902;8.590;2023-07-20T08:24:07;2.10;;;1.80;;
7493;SDS011;3788;49.902;8.590;2023-07-20T08:26:33;1.73;;;1.60;;
7493;SDS011;3788;49.902;8.590;2023-07-20T08:29:00;1.87;;;1.60;;
7493;SDS011;3788;49.902;8.590;2023-07-20T08:31:27;1.93;;;1.60;;
7493;SDS011;3788;49.902;8.590;2023-07-20T08:33:54;1.50;;;1.40;;
7493;SDS011;3788;49.902;8.590;2023-07-20T08:36:21;1.70;;;1.60;;
7493;SDS011;3788;49.902;8.590;2023-07-20T08:38:49;1.53;;;1.37;;
7493;SDS011;3788;49.902;8.590;2023-07-20T08:41:16;1.93;;;1.50;;
7493;SDS011;3788;49.902;8.590;2023-07-20T08:43:45;2.80;;;1.63;;
7493;SDS011;3788;49.902;8.590;2023-07-20T08:46:12;1.50;;;1.40;;
7493;SDS011;3788;49.902;8.590;2023-07-20T08:48:40;1.60;;;1.50;;
7493;SDS011;3788;49.902;8.590;2023-07-20T08:51:09;2.27;;;1.80;;
7493;SDS011;3788;49.902;8.590;2023-07-20T08:53:37;1.60;;;1.50;;
7493;SDS011;3788;49.902;8.590;2023-07-20T08:56:06;3.50;;;1.60;;
7493;SDS011;3788;49.902;8.590;2023-07-20T08:58:34;1.50;;;1.40;;
7493;SDS011;3788;49.902;8.590;2023-07-20T09:01:02;2.17;;;1.20;;
7493;SDS011;3788;49.902;8.590;2023-07-20T09:03:29;2.37;;;1.23;;
7493;SDS011;3788;49.902;8.590;2023-07-20T09:05:56;7.07;;;1.93;;
7493;SDS011;3788;49.902;8.590;2023-07-20T09:08:23;1.57;;;1.47;;
7493;SDS011;3788;49.902;8.590;2023-07-20T09:10:50;1.53;;;1.43;;
7493;SDS011;3788;49.902;8.590;2023-07-20T09:13:18;1.47;;;1.37;;
7493;SDS011;3788;49.902;8.590;2023-07-20T09:15:48;1.60;;;1.50;;
7493;SDS011;3788;49.902;8.590;2023-07-20T09:18:23;2.23;;;1.50;;
7493;SDS011;3788;49.902;8.590;2023-07-20T09:20:51;2.57;;;1.90;;
7493;SDS011;3788;49.902;8.590;2023-07-20T09:23:17;1.60;;;1.50;;
7493;SDS011;3788;49.902;8.590;2023-07-20T09:25:45;1.83;;;1.53;;
7493;SDS011;3788;49.902;8.590;2023-07-20T09:28:17;1.70;;;1.60;;
7493;SDS011;3788;49.902;8.590;2023-07-20T09:30:44;1.73;;;1.60;;
7493;SDS011;3788;49.902;8.590;2023-07-20T09:33:17;1.53;;;1.43;;
7493;SDS011;3788;49.902;8.590;2023-07-20T09:35:44;1.90;;;1.55;;
7493;SDS011;3788;49.902;8.590;2023-07-20T09:38:10;2.03;;;1.20;;
7493;SDS011;3788;49.902;8.590;2023-07-20T09:40:37;1.73;;;1.53;;
7493;SDS011;3788;49.902;8.590;2023-07-20T09:43:07;1.77;;;1.50;;
7493;SDS011;3788;49.902;8.590;2023-07-20T09:45:35;1.57;;;1.47;;
7493;SDS011;3788;49.902;8.590;2023-07-20T09:48:06;1.50;;;1.23;;
7493;SDS011;3788;49.902;8.590;2023-07-20T09:50:33;1.70;;;1.30;;
7493;SDS011;3788;49.902;8.590;2023-07-20T09:53:05;1.58;;;1.48;;
7493;SDS011;3788;49.902;8.590;2023-07-20T09:55:33;1.57;;;1.47;;
7493;SDS011;3788;49.902;8.590;2023-07-20T09:58:00;1.60;;;1.50;;
7493;SDS011;3788;49.902;8.590;2023-07-20T10:00:29;1.37;;;1.30;;
7493;SDS011;3788;49.902;8.590;2023-07-20T10:02:57;1.73;;;1.40;;
7493;SDS011;3788;49.902;8.590;2023-07-20T10:05:26;1.87;;;1.40;;
7493;SDS011;3788;49.902;8.590;2023-07-20T10:07:57;1.50;;;1.40;;
7493;SDS011;3788;49.902;8.590;2023-07-20T10:10:25;1.13;;;1.10;;
7493;SDS011;3788;49.902;8.590;2023-07-20T10:12:52;1.63;;;1.27;;
7493;SDS011;3788;49.902;8.590;2023-07-20T10:15:20;1.30;;;1.20;;
7493;SDS011;3788;49.902;8.590;2023-07-20T10:17:54;1.33;;;1.23;;
7493;SDS011;3788;49.902;8.590;2023-07-20T10:20:27;1.70;;;1.50;;
7493;SDS011;3788;49.902;8.590;2023-07-20T10:22:54;1.50;;;1.40;;
7493;SDS011;3788;49.902;8.590;2023-07-20T10:25:22;4.03;;;1.53;;
7493;SDS011;3788;49.902;8.590;2023-07-20T10:27:51;1.50;;;1.40;;
7493;SDS011;3788;49.902;8.590;2023-07-20T10:30:18;2.30;;;1.47;;
7493;SDS011;3788;49.902;8.590;2023-07-20T10:32:45;1.70;;;1.60;;
7493;SDS011;3788;49.902;8.590;2023-07-20T10:35:15;2.87;;;1.50;;
7493;SDS011;3788;49.902;8.590;2023-07-20T10:37:49;2.07;;;1.67;;
7493;SDS011;3788;49.902;8.590;2023-07-20T10:40:24;2.13;;;1.60;;
7493;SDS011;3788;49.902;8.590;2023-07-20T10:42:55;1.47;;;1.37;;
7493;SDS011;3788;49.902;8.590;2023-07-20T10:45:32;2.90;;;1.53;;
7493;SDS011;3788;49.902;8.590;2023-07-20T10:48:03;1.40;;;1.30;;
7493;SDS011;3788;49.902;8.590;2023-07-20T10:50:33;1.40;;;1.20;;
7493;SDS011;3788;49.902;8.590;2023-07-20T10:53:13;1.33;;;1.23;;
7493;SDS011;3788;49.902;8.590;2023-07-20T10:55:40;3.20;;;1.63;;
7493;SDS011;3788;49.902;8.590;2023-07-20T10:58:09;1.60;;;1.50;;
7493;SDS011;3788;49.902;8.590;2023-07-20T11:00:37;1.40;;;1.30;;
7493;SDS011;3788;49.902;8.590;2023-07-20T11:03:26;1.57;;;1.33;;
7493;SDS011;3788;49.902;8.590;2023-07-20T11:05:56;1.60;;;1.43;;
7493;SDS011;3788;49.902;8.590;2023-07-20T11:08:38;1.53;;;1.43;;
7493;SDS011;3788;49.902;8.590;2023-07-20T11:11:21;1.40;;;1.30;;
7493;SDS011;3788;49.902;8.590;2023-07-20T11:13:55;1.40;;;1.30;;
7493;SDS011;3788;49.902;8.590;2023-07-20T11:16:33;1.50;;;1.40;;
7493;SDS011;3788;49.902;8.590;2023-07-20T11:19:01;1.97;;;1.70;;
7493;SDS011;3788;49.902;8.590;2023-07-20T11:21:29;3.83;;;1.57;;
7493;SDS011;3788;49.902;8.590;2023-07-20T11:24:02;1.63;;;1.20;;
7493;SDS011;3788;49.902;8.590;2023-07-20T11:26:30;2.77;;;1.43;;
7493;SDS011;3788;49.902;8.590;2023-07-20T11:29:05;1.60;;;1.33;;
7493;SDS011;3788;49.902;8.590;2023-07-20T11:31:34;1.93;;;1.67;;
7493;SDS011;3788;49.902;8.590;2023-07-20T11:34:01;1.77;;;1.67;;
7493;SDS011;3788;49.902;8.590;2023-07-20T11:36:31;2.07;;;1.60;;
7493;SDS011;3788;49.902;8.590;2023-07-20T11:38:58;2.60;;;1.70;;
7493;SDS011;3788;49.902;8.590;2023-07-20T11:41:25;1.60;;;1.50;;
7493;SDS011;3788;49.902;8.590;2023-07-20T11:43:51;1.63;;;1.30;;
7493;SDS011;3788;49.902;8.590;2023-07-20T11:46:19;1.30;;;1.20;;
7493;SDS011;3788;49.902;8.590;2023-07-20T11:48:46;2.07;;;1.60;;
7493;SDS011;3788;49.902;8.590;2023-07-20T11:51:13;2.13;;;1.60;;
7493;SDS011;3788;49.902;8.590;2023-07-20T11:53:42;1.60;;;1.50;;
7493;SDS011;3788;49.902;8.590;2023-07-20T11:56:11;1.30;;;1.20;;
7493;SDS011;3788;49.902;8.590;2023-07-20T11:58:41;1.47;;;1.37;;
7493;SDS011;3788;49.902;8.590;2023-07-20T12:01:09;2.07;;;1.83;;
7493;SDS011;3788;49.902;8.590;2023-07-20T12:03:37;1.87;;;1.67;;
7493;SDS011;3788;49.902;8.590;2023-07-20T12:06:07;1.30;;;1.23;;
7493;SDS011;3788;49.902;8.590;2023-07-20T12:08:34;2.30;;;1.50;;
7493;SDS011;3788;49.902;8.590;2023-07-20T12:11:02;1.73;;;1.60;;
7493;SDS011;3788;49.902;8.590;2023-07-20T12:13:36;1.50;;;1.40;;
7493;SDS011;3788;49.902;8.590;2023-07-20T12:16:06;1.63;;;1.40;;
7493;SDS011;3788;49.902;8.590;2023-07-20T12:18:38;1.90;;;1.40;;
7493;SDS011;3788;49.902;8.590;2023-07-20T12:21:05;2.47;;;1.50;;
7493;SDS011;3788;49.902;8.590;2023-07-20T12:23:35;5.63;;;1.80;;
7493;SDS011;3788;49.902;8.590;2023-07-20T12:26:07;1.70;;;1.60;;
7493;SDS011;3788;49.902;8.590;2023-07-20T12:28:35;1.40;;;1.30;;
7493;SDS011;3788;49.902;8.590;2023-07-20T12:31:05;3.03;;;1.60;;
7493;SDS011;3788;49.902;8.590;2023-07-20T12:33:32;1.37;;;1.23;;
7493;SDS011;3788;49.902;8.590;2023-07-20T12:35:59;1.40;;;1.30;;
7493;SDS011;3788;49.902;8.590;2023-07-20T12:38:26;2.83;;;1.70;;
7493;SDS011;3788;49.902;8.590;2023-07-20T12:40:54;1.60;;;1.50;;
7493;SDS011;3788;49.902;8.590;2023-07-20T12:43:22;1.50;;;1.40;;
7493;SDS011;3788;49.902;8.590;2023-07-20T12:45:49;1.60;;;1.40;;
7493;SDS011;3788;49.902;8.590;2023-07-20T12:48:15;1.80;;;1.53;;
7493;SDS011;3788;49.902;8.590;2023-07-20T12:50:42;1.60;;;1.50;;
7493;SDS011;3788;49.902;8.590;2023-07-20T12:53:09;2.10;;;1.57;;
7493;SDS011;3788;49.902;8.590;2023-07-20T12:55:35;1.57;;;1.47;;
7493;SDS011;3788;49.902;8.590;2023-07-20T12:58:03;1.83;;;1.73;;
7493;SDS011;3788;49.902;8.590;2023-07-20T13:00:31;1.63;;;1.10;;
7493;SDS011;3788;49.902;8.590;2023-07-20T13:02:58;1.30;;;1.20;;
7493;SDS011;3788;49.902;8.590;2023-07-20T13:05:25;1.90;;;1.60;;
7493;SDS011;3788;49.902;8.590;2023-07-20T13:07:51;1.90;;;1.50;;
7493;SDS011;3788;49.902;8.590;2023-07-20T13:10:19;1.53;;;1.40;;
7493;SDS011;3788;49.902;8.590;2023-07-20T13:12:46;1.50;;;1.37;;
7493;SDS011;3788;49.902;8.590;2023-07-20T13:15:12;1.50;;;1.40;;
7493;SDS011;3788;49.902;8.590;2023-07-20T13:17:40;1.80;;;1.63;;
7493;SDS011;3788;49.902;8.590;2023-07-20T13:20:08;1.87;;;1.73;;
7493;SDS011;3788;49.902;8.590;2023-07-20T13:22:36;1.50;;;1.40;;
7493;SDS011;3788;49.902;8.590;2023-07-20T13:25:04;1.70;;;1.60;;
7493;SDS011;3788;49.902;8.590;2023-07-20T13:27:31;2.70;;;1.40;;
7493;SDS011;3788;49.902;8.590;2023-07-20T13:29:58;1.67;;;1.57;;
7493;SDS011;3788;49.902;8.590;2023-07-20T13:32:26;1.70;;;1.60;;
7493;SDS011;3788;49.902;8.590;2023-07-20T13:34:55;1.57;;;1.43;;
7493;SDS011;3788;49.902;8.590;2023-07-20T13:37:26;1.70;;;1.60;;
7493;SDS011;3788;49.902;8.590;2023-07-20T13:39:53;1.67;;;1.37;;
7493;SDS011;3788;49.902;8.590;2023-07-20T13:42:20;1.33;;;1.23;;
7493;SDS011;3788;49.902;8.590;2023-07-20T13:44:47;1.57;;;1.47;;
7493;SDS011;3788;49.902;8.590;2023-07-20T13:47:14;1.70;;;1.60;;
7493;SDS011;3788;49.902;8.590;2023-07-20T13:49:40;1.70;;;1.60;;
7493;SDS011;3788;49.902;8.590;2023-07-20T13:52:08;2.00;;;1.50;;
7493;SDS011;3788;49.902;8.590;2023-07-20T13:54:35;1.60;;;1.50;;
7493;SDS011;3788;49.902;8.590;2023-07-20T13:57:02;1.73;;;1.63;;
7493;SDS011;3788;49.902;8.590;2023-07-20T13:59:30;1.80;;;1.70;;
7493;SDS011;3788;49.902;8.590;2023-07-20T14:01:56;1.40;;;1.30;;
7493;SDS011;3788;49.902;8.590;2023-07-20T14:04:23;1.60;;;1.50;;
7493;SDS011;3788;49.902;8.590;2023-07-20T14:06:50;1.10;;;1.10;;
7493;SDS011;3788;49.902;8.590;2023-07-20T14:09:18;1.40;;;1.30;;
7493;SDS011;3788;49.902;8.590;2023-07-20T14:11:45;1.60;;;1.50;;
7493;SDS011;3788;49.902;8.590;2023-07-20T14:14:12;1.63;;;1.53;;
7493;SDS011;3788;49.902;8.590;2023-07-20T14:16:39;1.80;;;1.70;;
7493;SDS011;3788;49.902;8.590;2023-07-20T14:19:07;3.00;;;1.90;;
7493;SDS011;3788;49.902;8.590;2023-07-20T14:21:34;1.90;;;1.73;;
7493;SDS011;3788;49.902;8.590;2023-07-20T14:24:01;1.30;;;1.20;;
7493;SDS011;3788;49.902;8.590;2023-07-20T14:26:30;1.70;;;1.40;;
7493;SDS011;3788;49.902;8.590;2023-07-20T14:28:56;1.67;;;1.57;;
7493;SDS011;3788;49.902;8.590;2023-07-20T14:31:23;2.00;;;1.57;;
7493;SDS011;3788;49.902;8.590;2023-07-20T14:33:51;1.30;;;1.20;;
7493;SDS011;3788;49.902;8.590;2023-07-20T14:36:18;1.90;;;1.80;;
7493;SDS011;3788;49.902;8.590;2023-07-20T14:38:45;2.20;;;1.30;;
7493;SDS011;3788;49.902;8.590;2023-07-20T14:41:12;1.40;;;1.30;;
7493;SDS011;3788;49.902;8.590;2023-07-20T14:43:40;1.60;;;1.10;;
7493;SDS011;3788;49.902;8.590;2023-07-20T14:46:07;2.07;;;1.33;;
7493;SDS011;3788;49.902;8.590;2023-07-20T14:48:34;1.40;;;1.30;;
7493;SDS011;3788;49.902;8.590;2023-07-20T14:51:02;1.60;;;1.50;;
7493;SDS011;3788;49.902;8.590;2023-07-20T14:53:30;1.43;;;1.33;;
7493;SDS011;3788;49.902;8.590;2023-07-20T14:55:59;1.60;;;1.50;;
7493;SDS011;3788;49.902;8.590;2023-07-20T14:58:26;1.40;;;1.30;;
7493;SDS011;3788;49.902;8.590;2023-07-20T15:00:54;1.40;;;1.30;;
7493;SDS011;3788;49.902;8.590;2023-07-20T15:03:21;3.33;;;1.20;;
7493;SDS011;3788;49.902;8.590;2023-07-20T15:05:48;1.60;;;1.30;;
7493;SDS011;3788;49.902;8.590;2023-07-20T15:08:16;2.00;;;1.57;;
7493;SDS011;3788;49.902;8.590;2023-07-20T15:10:44;1.37;;;1.27;;
7493;SDS011;3788;49.902;8.590;2023-07-20T15:13:11;1.47;;;1.20;;
7493;SDS011;3788;49.902;8.590;2023-07-20T15:15:52;1.47;;;1.37;;
7493;SDS011;3788;49.902;8.590;2023-07-20T15:18:22;1.40;;;1.30;;
7493;SDS011;3788;49.902;8.590;2023-07-20T15:20:52;1.30;;;1.20;;